createdAt,value
2023-05-05T00:02:10.867Z,75.58
2023-05-05T00:05:27.776Z,75.62
2023-05-05T00:08:59.769Z,75.59
2023-05-05T00:12:15.795Z,75.83
2023-05-05T00:15:35.760Z,76.01
2023-05-05T00:19:12.422Z,75.71
2023-05-05T00:22:45.812Z,75.46
2023-05-05T00:26:25.829Z,74.83
2023-05-05T00:29:29.120Z,74.57
2023-05-05T00:31:57.330Z,74.73
2023-05-05T00:34:25.316Z,74.55
2023-05-05T00:37:21.815Z,74.25
2023-05-05T00:40:56.164Z,75.01
2023-05-05T00:44:38.839Z,74.25
2023-05-05T00:48:23.808Z,73.87
2023-05-05T00:52:01.815Z,74.08
2023-05-05T00:55:33.788Z,74.17
2023-05-05T00:59:04.834Z,74.11
2023-05-05T01:02:37.820Z,74.05
2023-05-05T01:06:10.158Z,74.09
2023-05-05T01:09:41.817Z,74.15
2023-05-05T01:13:16.827Z,74.50
2023-05-05T01:16:46.451Z,74.92
2023-05-05T01:20:03.639Z,74.71
2023-05-05T01:23:37.774Z,74.36
2023-05-05T01:27:12.801Z,74.72
2023-05-05T01:30:07.384Z,75.28
2023-05-05T01:33:34.801Z,75.30
2023-05-05T01:36:48.785Z,75.80
2023-05-05T01:40:18.748Z,75.79
2023-05-05T01:43:43.957Z,75.81
2023-05-05T01:47:11.790Z,75.77
2023-05-05T01:50:48.717Z,76.35
2023-05-05T01:54:25.086Z,76.05
2023-05-05T01:57:43.748Z,76.13
2023-05-05T02:01:18.821Z,76.25
2023-05-05T02:04:37.788Z,76.40
2023-05-05T02:07:52.734Z,76.43
2023-05-05T02:11:16.814Z,76.52
2023-05-05T02:14:33.810Z,76.57
2023-05-05T02:17:42.876Z,76.98
2023-05-05T02:21:03.732Z,77.04
2023-05-05T02:24:20.805Z,77.62
2023-05-05T02:27:26.778Z,78.51
2023-05-05T02:30:53.797Z,77.59
2023-05-05T02:34:23.814Z,77.76
2023-05-05T02:38:05.607Z,78.37
2023-05-05T02:41:34.821Z,77.94
2023-05-05T02:45:18.668Z,77.58
2023-05-05T02:48:50.825Z,77.63
2023-05-05T02:52:20.764Z,77.83
2023-05-05T02:56:12.819Z,78.10
2023-05-05T02:59:29.799Z,78.20
2023-05-05T03:02:58.836Z,78.06
2023-05-05T03:06:38.827Z,78.26
2023-05-05T03:10:28.841Z,78.89
2023-05-05T03:14:35.782Z,78.81
2023-05-05T03:18:22.820Z,78.68
2023-05-05T03:22:20.818Z,78.90
2023-05-05T03:25:45.771Z,78.74
2023-05-05T03:29:39.798Z,78.57
2023-05-05T03:33:20.822Z,78.65
2023-05-05T03:37:12.827Z,79.08
2023-05-05T03:41:03.781Z,78.46
2023-05-05T03:44:50.782Z,78.70
2023-05-05T03:48:09.919Z,78.93
2023-05-05T03:50:39.357Z,80.30
2023-05-05T03:53:08.524Z,82.83
2023-05-05T03:55:36.940Z,82.95
2023-05-05T03:58:05.130Z,81.58
2023-05-05T04:00:33.572Z,80.80
2023-05-05T04:03:01.950Z,81.59
2023-05-05T04:05:31.034Z,80.60
2023-05-05T04:07:59.151Z,80.58
2023-05-05T04:10:27.196Z,80.65
2023-05-05T04:12:55.821Z,80.41
2023-05-05T04:15:23.792Z,80.83
2023-05-05T04:17:52.343Z,84.11
2023-05-05T04:20:20.577Z,84.34
2023-05-05T04:22:49.851Z,83.06
2023-05-05T04:25:19.982Z,82.58
2023-05-05T04:27:49.629Z,82.30
2023-05-05T04:30:18.702Z,82.42
2023-05-05T04:32:47.041Z,82.16
2023-05-05T04:35:15.780Z,81.90
2023-05-05T04:37:44.133Z,81.80
2023-05-05T04:40:12.557Z,81.93
2023-05-05T04:42:41.499Z,81.69
2023-05-05T04:45:10.121Z,81.56
2023-05-05T04:47:39.850Z,81.82
2023-05-05T04:50:08.997Z,81.40
2023-05-05T04:52:39.767Z,80.98
2023-05-05T04:55:10.592Z,80.44
2023-05-05T04:58:34.815Z,80.70
2023-05-05T05:02:26.070Z,80.10
2023-05-05T05:06:04.817Z,79.98
2023-05-05T05:10:14.745Z,79.62
2023-05-05T05:12:47.972Z,79.08
2023-05-05T05:15:15.974Z,78.92
2023-05-05T05:17:44.088Z,78.25
2023-05-05T05:20:14.525Z,77.71
2023-05-05T05:22:42.663Z,77.52
2023-05-05T05:25:14.288Z,77.18
2023-05-05T05:27:42.578Z,77.00
2023-05-05T05:30:14.251Z,76.76
2023-05-05T05:32:42.567Z,75.28
2023-05-05T05:35:10.981Z,74.84
2023-05-05T05:37:39.271Z,75.11
2023-05-05T05:40:11.028Z,74.77
2023-05-05T05:42:40.429Z,74.14
2023-05-05T05:45:29.900Z,74.35
2023-05-05T05:48:01.244Z,74.20
2023-05-05T05:50:50.349Z,74.09
2023-05-05T05:53:19.205Z,73.24
2023-05-05T05:55:47.848Z,73.56
2023-05-05T05:58:17.128Z,74.02
2023-05-05T06:00:49.354Z,74.06
2023-05-05T06:03:17.871Z,74.08
2023-05-05T06:06:24.713Z,73.91
2023-05-05T06:09:28.235Z,73.68
2023-05-05T06:13:36.247Z,73.75
2023-05-05T06:15:16.808Z,72.89
2023-05-05T06:18:57.948Z,73.00
2023-05-05T06:22:38.258Z,72.90
2023-05-05T06:30:06.459Z,72.79
2023-05-05T06:38:13.194Z,72.20
2023-05-05T06:40:25.938Z,71.84
2023-05-05T06:41:24.036Z,72.09
2023-05-05T06:44:38.881Z,72.20
2023-05-05T07:01:12.844Z,71.89
2023-05-05T07:11:22.427Z,69.92
2023-05-05T07:13:06.430Z,69.92
2023-05-05T07:13:57.513Z,69.59
2023-05-05T07:17:08.358Z,69.94
2023-05-05T07:20:18.929Z,69.44
2023-05-05T07:26:50.744Z,69.02
2023-05-05T07:31:48.572Z,68.17
2023-05-05T07:42:32.028Z,67.04
2023-05-05T07:49:22.167Z,66.32
2023-05-05T07:52:18.371Z,65.54
2023-05-05T07:55:28.723Z,65.47
2023-05-05T07:58:57.588Z,64.31
2023-05-05T08:06:40.400Z,64.92
2023-05-05T08:10:43.656Z,64.27
2023-05-05T08:24:54.564Z,62.46
2023-05-05T08:48:06.861Z,55.75
2023-05-05T08:50:41.979Z,52.02
2023-05-05T08:53:12.176Z,51.66
2023-05-05T08:55:56.102Z,52.78
2023-05-05T08:58:27.034Z,53.29
2023-05-05T09:01:01.609Z,52.26
2023-05-05T09:03:34.907Z,50.27
2023-05-05T09:06:05.296Z,50.42
2023-05-05T09:08:35.342Z,51.93
2023-05-05T09:11:08.102Z,52.47
2023-05-05T09:13:36.443Z,51.42
2023-05-05T09:16:05.447Z,48.75
2023-05-05T09:18:36.696Z,48.29
2023-05-05T09:21:20.659Z,48.77
2023-05-05T09:24:09.258Z,47.98
2023-05-05T09:26:47.222Z,46.69
2023-05-05T09:29:26.282Z,46.15
2023-05-05T09:32:10.493Z,45.90
2023-05-05T09:34:43.787Z,45.39
2023-05-05T09:37:31.691Z,46.04
2023-05-05T09:40:09.352Z,46.94
2023-05-05T09:42:41.339Z,45.17
2023-05-05T09:45:40.753Z,45.51
2023-05-05T09:48:40.559Z,45.54
2023-05-05T09:51:33.617Z,45.20
2023-05-05T09:54:22.500Z,44.97
2023-05-05T09:57:43.058Z,44.05
2023-05-05T10:00:44.330Z,43.32
2023-05-05T10:03:19.486Z,43.24
2023-05-05T10:06:44.746Z,42.96
2023-05-05T10:09:26.240Z,42.67
2023-05-05T10:15:47.308Z,43.12
2023-05-05T10:18:25.126Z,42.52
2023-05-05T10:21:06.312Z,40.58
2023-05-05T10:23:49.094Z,40.86
2023-05-05T10:26:20.285Z,40.86
2023-05-05T10:28:56.329Z,40.58
2023-05-05T10:31:41.348Z,40.50
2023-05-05T10:34:27.134Z,40.69
2023-05-05T10:36:57.654Z,39.94
2023-05-05T10:39:43.896Z,40.69
2023-05-05T10:42:15.163Z,40.78
2023-05-05T10:44:44.614Z,40.84
2023-05-05T10:47:13.420Z,40.08
2023-05-05T10:49:53.442Z,39.73
2023-05-05T10:52:41.472Z,40.11
2023-05-05T10:55:22.187Z,39.91
2023-05-05T10:59:00.259Z,38.99
2023-05-05T11:02:42.837Z,38.36
2023-05-05T11:05:29.782Z,37.21
2023-05-05T11:08:28.730Z,36.50
2023-05-05T11:11:00.456Z,36.27
2023-05-05T11:13:29.429Z,34.96
2023-05-05T11:15:58.886Z,34.79
2023-05-05T11:18:35.945Z,34.53
2023-05-05T11:21:15.281Z,33.23
2023-05-05T11:23:48.194Z,32.79
2023-05-05T11:26:18.698Z,32.38
2023-05-05T11:29:03.172Z,32.30
2023-05-05T11:31:34.763Z,31.92
2023-05-05T11:34:31.338Z,32.55
2023-05-05T11:37:04.952Z,31.28
2023-05-05T11:39:47.310Z,30.61
2023-05-05T11:42:26.153Z,31.27
2023-05-05T11:45:19.911Z,30.76
2023-05-05T11:47:48.680Z,30.72
2023-05-05T11:50:24.653Z,30.66
2023-05-05T11:52:55.017Z,29.84
2023-05-05T11:55:25.729Z,28.45
2023-05-05T11:57:54.313Z,28.17
2023-05-05T12:00:58.666Z,28.09
2023-05-05T12:40:58.364Z,25.90
2023-05-05T12:44:00.178Z,25.70
2023-05-05T12:46:48.079Z,25.38
2023-05-05T12:49:54.347Z,25.62
2023-05-05T12:53:12.339Z,24.83
2023-05-05T12:56:44.667Z,24.79
2023-05-05T13:04:59.844Z,24.65
2023-05-05T13:08:19.729Z,24.48
2023-05-05T13:11:01.084Z,25.48
2023-05-05T13:13:44.389Z,25.82
2023-05-05T13:16:19.061Z,25.45
2023-05-05T13:19:09.308Z,25.56
2023-05-05T13:21:44.467Z,25.45
2023-05-05T13:24:49.543Z,25.22
2023-05-05T13:27:29.393Z,25.09
2023-05-05T13:29:59.584Z,24.63
2023-05-05T13:32:27.882Z,24.03
2023-05-05T13:34:59.173Z,23.11
2023-05-05T13:37:31.222Z,22.44
2023-05-05T13:40:01.717Z,21.94
2023-05-05T13:42:30.561Z,22.66
2023-05-05T13:44:58.766Z,22.97
2023-05-05T13:47:34.858Z,22.92
2023-05-05T13:50:05.408Z,22.10
2023-05-05T13:52:42.064Z,21.69
2023-05-05T13:55:17.529Z,20.89
2023-05-05T13:57:52.910Z,20.95
2023-05-05T14:00:39.754Z,21.88
2023-05-05T14:03:10.642Z,22.16
2023-05-05T14:05:44.100Z,21.93
2023-05-05T14:08:13.346Z,21.92
2023-05-05T14:10:41.818Z,20.89
2023-05-05T14:13:12.644Z,20.70
2023-05-05T14:15:54.569Z,20.08
2023-05-05T14:18:22.920Z,20.03
2023-05-05T14:20:58.556Z,22.05
2023-05-05T14:23:28.353Z,23.04
2023-05-05T14:25:57.851Z,23.11
2023-05-05T14:28:29.595Z,22.55
2023-05-05T14:31:06.537Z,21.70
2023-05-05T14:37:18.072Z,20.89
2023-05-05T14:41:02.003Z,21.03
2023-05-05T14:44:51.459Z,20.83
2023-05-05T14:59:09.998Z,19.35
2023-05-05T15:03:09.032Z,19.21
2023-05-05T15:13:11.130Z,18.90
2023-05-05T15:17:05.719Z,18.72
2023-05-05T15:23:20.823Z,18.03
2023-05-05T15:26:28.356Z,17.50
2023-05-05T15:29:18.727Z,17.38
2023-05-05T15:31:57.837Z,16.81
2023-05-05T15:34:38.724Z,16.97
2023-05-05T15:37:23.615Z,16.89
2023-05-05T15:40:08.183Z,16.95
2023-05-05T15:42:51.281Z,16.47
2023-05-05T15:46:25.926Z,16.67
2023-05-05T15:49:17.275Z,16.60
2023-05-05T15:52:10.495Z,16.75
2023-05-05T15:54:55.375Z,16.31
2023-05-05T15:58:19.062Z,17.34
2023-05-05T16:01:23.210Z,17.29
2023-05-05T16:04:35.101Z,17.83
2023-05-05T16:07:37.521Z,17.75
2023-05-05T16:10:50.420Z,17.14
2023-05-05T16:14:27.712Z,17.09
2023-05-05T16:17:05.862Z,17.77
2023-05-05T16:19:37.249Z,17.89
2023-05-05T16:22:05.621Z,17.70
2023-05-05T16:24:33.506Z,17.25
2023-05-05T16:27:02.550Z,17.65
2023-05-05T16:29:30.528Z,18.14
2023-05-05T16:31:58.507Z,18.14
2023-05-05T16:34:26.665Z,18.22
2023-05-05T16:36:54.802Z,18.15
2023-05-05T16:39:22.996Z,18.67
2023-05-05T16:41:50.875Z,18.98
2023-05-05T16:44:18.833Z,19.62
2023-05-05T16:46:46.927Z,19.63
2023-05-05T16:49:25.213Z,19.58
2023-05-05T16:51:53.715Z,19.87
2023-05-05T16:54:22.384Z,20.08
2023-05-05T16:56:52.458Z,20.52
2023-05-05T16:59:20.458Z,20.90
2023-05-05T17:01:48.732Z,21.96
2023-05-05T17:04:17.120Z,22.85
2023-05-05T17:06:45.039Z,24.36
2023-05-05T17:09:12.842Z,25.56
2023-05-05T17:11:42.408Z,26.80
2023-05-05T17:14:10.456Z,27.90
2023-05-05T17:16:38.897Z,29.45
2023-05-05T17:19:14.455Z,30.56
2023-05-05T17:21:46.774Z,31.00
2023-05-05T17:24:15.217Z,30.69
2023-05-05T17:26:44.106Z,30.91
2023-05-05T17:29:13.173Z,31.89
2023-05-05T17:31:42.058Z,32.92
2023-05-05T17:34:13.576Z,33.43
2023-05-05T17:36:42.480Z,35.48
2023-05-05T17:39:11.443Z,35.91
2023-05-05T17:41:42.170Z,35.74
2023-05-05T17:44:11.316Z,36.04
2023-05-05T17:46:39.338Z,36.49
2023-05-05T17:49:10.282Z,37.24
2023-05-05T17:51:58.789Z,38.27
2023-05-05T17:54:37.098Z,37.95
2023-05-05T17:57:05.108Z,38.16
2023-05-05T17:59:53.678Z,38.40
2023-05-05T18:02:24.086Z,39.54
2023-05-05T18:04:52.833Z,39.37
2023-05-05T18:07:21.845Z,39.80
2023-05-05T18:09:49.801Z,40.74
2023-05-05T18:12:19.457Z,41.45
2023-05-05T18:14:54.917Z,42.02
2023-05-05T18:17:24.304Z,41.67
2023-05-05T18:19:54.068Z,41.51
2023-05-05T18:22:30.568Z,42.22
2023-05-05T18:25:00.463Z,42.53
2023-05-05T18:27:29.077Z,42.61
2023-05-05T18:29:56.949Z,43.42
2023-05-05T18:32:24.990Z,43.64
2023-05-05T18:34:52.978Z,43.45
2023-05-05T18:37:20.954Z,45.83
2023-05-05T18:39:49.182Z,44.71
2023-05-05T18:42:17.049Z,45.23
2023-05-05T18:44:45.049Z,45.52
2023-05-05T18:47:13.260Z,45.40
2023-05-05T18:49:41.909Z,46.02
2023-05-05T18:52:09.980Z,44.88
2023-05-05T18:54:38.117Z,44.43
2023-05-05T18:57:06.753Z,44.68
2023-05-05T18:59:34.735Z,44.78
2023-05-05T19:02:02.870Z,44.84
2023-05-05T19:04:32.168Z,46.84
2023-05-05T19:07:00.233Z,46.13
2023-05-05T19:09:28.330Z,45.90
2023-05-05T19:11:56.269Z,46.89
2023-05-05T19:14:28.193Z,47.13
2023-05-05T19:16:58.899Z,46.31
2023-05-05T19:19:27.239Z,46.46
2023-05-05T19:21:55.192Z,46.80
2023-05-05T19:24:23.039Z,48.50
2023-05-05T19:26:52.218Z,48.11
2023-05-05T19:29:20.329Z,48.04
2023-05-05T19:31:48.596Z,48.57
2023-05-05T19:34:17.521Z,48.67
2023-05-05T19:36:45.551Z,48.86
2023-05-05T19:39:15.315Z,49.11
2023-05-05T19:41:44.165Z,49.33
2023-05-05T19:44:12.054Z,49.69
2023-05-05T19:46:40.352Z,49.59
2023-05-05T19:49:08.360Z,49.67
2023-05-05T19:51:36.701Z,49.95
2023-05-05T19:54:06.061Z,49.87
2023-05-05T19:56:34.171Z,50.35
2023-05-05T19:59:05.969Z,50.43
2023-05-05T20:01:35.665Z,50.43
2023-05-05T20:04:03.937Z,50.32
2023-05-05T20:06:32.844Z,50.34
2023-05-05T20:09:01.038Z,50.17
2023-05-05T20:11:30.068Z,50.46
2023-05-05T20:14:31.144Z,50.59
2023-05-05T20:21:23.205Z,51.41
2023-05-05T20:25:14.901Z,50.68
2023-05-05T20:28:48.349Z,50.94
2023-05-05T20:32:24.107Z,51.45
2023-05-05T20:35:54.401Z,53.46
2023-05-05T20:43:05.041Z,52.69
2023-05-05T20:46:49.158Z,53.06
2023-05-05T21:00:17.868Z,56.95
2023-05-05T21:07:32.203Z,55.54
2023-05-05T21:14:43.452Z,55.62
2023-05-05T21:18:19.977Z,58.15
2023-05-05T21:22:10.302Z,57.01
2023-05-05T21:25:44.384Z,57.20
2023-05-05T21:29:48.371Z,57.78
2023-05-05T21:37:25.944Z,58.00
2023-05-05T21:41:26.793Z,58.62
2023-05-05T21:48:22.801Z,59.17
2023-05-05T21:51:45.991Z,59.04
2023-05-05T21:58:42.364Z,59.88
2023-05-05T22:02:10.965Z,60.28
2023-05-05T22:05:55.454Z,60.48
2023-05-05T22:13:34.283Z,60.97
2023-05-05T22:20:28.240Z,61.05
2023-05-05T22:24:12.008Z,61.05
2023-05-05T22:27:56.120Z,61.56
2023-05-05T22:35:17.587Z,62.55
2023-05-05T22:39:22.513Z,62.67
2023-05-05T22:46:22.152Z,63.40
2023-05-05T22:53:16.533Z,64.62
2023-05-05T22:57:00.028Z,64.65
2023-05-05T23:00:37.117Z,65.14
2023-05-05T23:04:11.015Z,65.27
2023-05-05T23:10:55.070Z,65.24
2023-05-05T23:14:42.115Z,65.22
2023-05-05T23:18:14.100Z,65.20
2023-05-05T23:21:53.401Z,66.07
2023-05-05T23:25:25.951Z,66.32
2023-05-05T23:29:26.635Z,66.21
2023-05-05T23:33:35.795Z,67.04
2023-05-05T23:37:13.355Z,66.75
2023-05-05T23:48:02.155Z,68.19
2023-05-05T23:51:37.004Z,68.09
2023-05-05T23:55:16.960Z,68.40
